Bei Facebook empfehlenBei Twitter postenGoogle plusPinterest

Das Wetter im Erzgebirge am 12.06.2016

Wetter und Klima am 12.06.2016 Holzhau im Erzgebirge (630m ü.NN)
Letzte gemessene Temperatur und Uhrzeit der Messung23:45:00 Uhr11.90 °C
Temperatur (Maximum / Höchstwert) und Uhrzeit der Messung14:45:00 Uhr21.20 °C
Temperatur (Minimum / Tiefstwert) und Uhrzeit der Messung04:00:008.10 °C
Errechneter Absolutwert der Temperaturschwankungen zwischen Tmin und Tmax des Tages13.10 K
Errechnete Tagesmitteltemperatur14.13958 °C
Gesamt - Niederschlag des Tages (in flüssiger Form)2.07 Liter / m²
Luftdruck (Maximum / Höchstwert) und Zeitpunkt der Messung00:00:00 Uhr1008.90 hPa
Luftdruck (Minimum / Tiefstwert) und Zeitpunkt der Messung23:45:00 Uhr1003.40 hPa
Errechneter Absolutwert der Luftdruckschwankungen des Tages5.50 hPa
Höchste gemessene Windgeschwindigkeit und Uhrzeit der Messung23:45:00 Uhr0.00 km/h
Errechnete Windhäufigkeit in Relation zu den Messwerten des Tages0.00000 %
Niedrigste Windkühle (Windchill) und Zeitpunkt der Messung04:00:00 Uhr8.10 °C
Taupunkt (Maximum / Höchstwert) und Uhrzeit der Messung12:15:00 Uhr14.20 °C
Taupunkt (Minimum / Tiefstwert) und Uhrzeit der Messung04:00:006.40 °C
Anzahl der automatisch eingelesenen Messwerte 96

Detaillierte Wetter- und Klima- Messwerte für den 12.06.2016 in Holzhau im Erzgebirge (630m ü.NN)
ZeitTemperaturLuftdruckRel. LuftfeuchteWindWindrichtungWindchillTaupunktNiederschlag l/m²
23:45:0011.90 °C1003.40 hPa92.00 %10.60 °C2.07
23:30:0012.10 °C1003.50 hPa92.00 %10.80 °C2.07
23:15:0012.20 °C1003.60 hPa92.00 %10.90 °C2.07
23:00:0012.40 °C1003.60 hPa92.00 %11.10 °C2.07
22:45:0012.50 °C1003.60 hPa92.00 %11.20 °C2.07
22:30:0012.60 °C1003.60 hPa92.00 %11.30 °C2.07
22:15:0012.60 °C1003.80 hPa91.00 %11.20 °C2.07
22:00:0012.70 °C1003.70 hPa91.00 %11.30 °C2.07
21:45:0012.80 °C1003.70 hPa91.00 %11.40 °C2.07
21:30:0012.90 °C1003.60 hPa90.00 %11.30 °C2.07
21:15:0013.00 °C1003.80 hPa90.00 %11.40 °C2.07
21:00:0013.00 °C1003.90 hPa90.00 %11.40 °C2.07
20:45:0012.90 °C1003.80 hPa90.00 %11.30 °C1.55
20:30:0013.00 °C1004.10 hPa89.00 %11.20 °C1.55
20:15:0013.20 °C1004.00 hPa89.00 %11.40 °C1.55
20:00:0013.30 °C1004.10 hPa88.00 %11.40 °C1.55
19:45:0013.30 °C1004.30 hPa88.00 %11.40 °C1.55
19:30:0013.40 °C1004.20 hPa88.00 %11.50 °C1.55
19:15:0013.40 °C1004.30 hPa87.00 %11.30 °C1.55
19:00:0013.60 °C1004.30 hPa86.00 %11.30 °C1.55
18:45:0013.60 °C1004.50 hPa85.00 %11.10 °C1.55
18:30:0013.60 °C1004.50 hPa84.00 %11.00 °C1.55
18:15:0013.80 °C1004.60 hPa82.00 %10.80 °C1.04
18:00:0014.20 °C1004.90 hPa79.00 %10.60 °C1.04
17:45:0015.30 °C1005.10 hPa74.00 %10.70 °C0.52
17:30:0017.90 °C1005.20 hPa67.00 %11.70 °C 
17:15:0019.30 °C1005.00 hPa66.00 %12.80 °C 
17:00:0019.40 °C1004.90 hPa66.00 %12.90 °C 
16:45:0019.50 °C1004.90 hPa65.00 %12.70 °C 
16:30:0019.20 °C1005.10 hPa66.00 %12.70 °C 
16:15:0019.00 °C1005.20 hPa65.00 %12.30 °C 
16:00:0019.30 °C1005.20 hPa63.00 %12.10 °C 
15:45:0019.80 °C1005.30 hPa63.00 %12.60 °C 
15:30:0020.30 °C1005.40 hPa62.00 %12.80 °C 
15:15:0020.80 °C1005.40 hPa62.00 %13.30 °C 
15:00:0020.90 °C1005.40 hPa61.00 %13.10 °C 
14:45:0021.20 °C1005.70 hPa63.00 %13.90 °C 
14:30:0020.80 °C1005.90 hPa62.00 %13.30 °C 
14:15:0020.90 °C1006.00 hPa62.00 %13.40 °C 
14:00:0020.60 °C1006.10 hPa63.00 %13.30 °C 
13:45:0021.10 °C1006.10 hPa62.00 %13.50 °C 
13:30:0021.10 °C1006.10 hPa62.00 %13.50 °C 
13:15:0020.30 °C1006.20 hPa65.00 %13.50 °C 
13:00:0019.40 °C1006.60 hPa65.00 %12.70 °C 
12:45:0019.60 °C1006.80 hPa65.00 %12.80 °C 
12:30:0020.80 °C1006.80 hPa63.00 %13.50 °C 
12:15:0020.10 °C1007.00 hPa69.00 %14.20 °C 
12:00:0018.90 °C1007.10 hPa67.00 %12.60 °C 
11:45:0019.20 °C1007.10 hPa68.00 %13.20 °C 
11:30:0018.90 °C1007.10 hPa70.00 %13.30 °C 
11:15:0018.50 °C1007.30 hPa71.00 %13.10 °C 
11:00:0017.60 °C1007.10 hPa73.00 %12.70 °C 
10:45:0017.10 °C1007.20 hPa75.00 %12.60 °C 
10:30:0017.30 °C1007.40 hPa77.00 %13.20 °C 
10:15:0017.20 °C1007.50 hPa80.00 %13.70 °C 
10:00:0016.40 °C1007.50 hPa82.00 %13.30 °C 
09:45:0015.80 °C1007.60 hPa84.00 %13.10 °C 
09:30:0014.60 °C1007.70 hPa86.00 %12.30 °C 
09:15:0014.20 °C1007.80 hPa86.00 %11.90 °C 
09:00:0014.20 °C1007.80 hPa87.00 %12.10 °C 
08:45:0013.80 °C1007.80 hPa88.00 %11.80 °C 
08:30:0013.30 °C1007.80 hPa89.00 %11.50 °C 
08:15:0012.70 °C1007.90 hPa90.00 %11.10 °C 
08:00:0012.10 °C1007.90 hPa90.00 %10.50 °C 
07:45:0011.70 °C1007.90 hPa90.00 %10.10 °C 
07:30:0011.40 °C1007.90 hPa91.00 %10.00 °C 
07:15:0011.10 °C1007.90 hPa91.00 %9.70 °C 
07:00:0010.60 °C1007.90 hPa91.00 %9.20 °C 
06:45:0010.30 °C1007.90 hPa91.00 %8.90 °C 
06:30:009.90 °C1007.90 hPa91.00 %8.50 °C 
06:15:009.60 °C1007.80 hPa91.00 %8.20 °C 
06:00:009.50 °C1007.90 hPa91.00 %8.10 °C 
05:45:009.40 °C1007.80 hPa91.00 %8.00 °C 
05:30:009.30 °C1007.80 hPa91.00 %7.90 °C 
05:15:009.30 °C1007.90 hPa91.00 %7.90 °C 
05:00:009.00 °C1008.00 hPa91.00 %7.60 °C 
04:45:008.90 °C1008.10 hPa90.00 %7.40 °C 
04:30:008.60 °C1008.00 hPa90.00 %7.10 °C 
04:15:008.30 °C1008.00 hPa90.00 %6.80 °C 
04:00:008.10 °C1008.00 hPa89.00 %6.40 °C 
03:45:008.40 °C1008.00 hPa89.00 %6.70 °C 
03:30:008.60 °C1008.30 hPa89.00 %6.90 °C 
03:15:008.90 °C1008.40 hPa88.00 %7.00 °C 
03:00:009.20 °C1008.50 hPa88.00 %7.30 °C 
02:45:009.30 °C1008.60 hPa87.00 %7.30 °C 
02:30:009.90 °C1008.50 hPa87.00 %7.80 °C 
02:15:0010.30 °C1008.60 hPa87.00 %8.20 °C 
02:00:0010.60 °C1008.60 hPa87.00 %8.50 °C 
01:45:0010.60 °C1008.60 hPa87.00 %8.50 °C 
01:30:0010.60 °C1008.50 hPa87.00 %8.50 °C 
01:15:0010.80 °C1008.70 hPa87.00 %8.70 °C 
01:00:0010.90 °C1008.80 hPa87.00 %8.80 °C 
00:45:0010.90 °C1008.80 hPa87.00 %8.80 °C 
00:30:0011.00 °C1008.80 hPa87.00 %8.90 °C 
00:15:0011.00 °C1008.80 hPa86.00 %8.80 °C 
00:00:0011.00 °C1008.90 hPa86.00 %8.80 °C 

Permanenter Link zu dieser Seite: Wetter im Erzgebirge am 12.06.2016
Performance-Info: Die Erstellung der Seite / Statistik(en) / Tabelle(n) erforderte 5 Datenbankserver-Abfrage(n) und dauerte 103 Millisekunden. (Dieser Messwert ist von der Gesamt-Auslastung des Servers abhängig.)
Erzgebirge - Wetter | Erzgebirge - Wetter (Mobilgeräte) | Komplette Klimadatenbank